sensor_id;sensor_type;location;lat;lon;timestamp;pressure;altitude;pressure_sealevel;temperature;humidity
41686;BME280;27370;42.764;23.432;2022-09-09T00:00:40;95780.25;;;16.14;100.00
41686;BME280;27370;42.764;23.432;2022-09-09T00:03:19;95770.19;;;16.11;100.00
41686;BME280;27370;42.764;23.432;2022-09-09T00:11:24;95759.81;;;16.06;100.00
41686;BME280;27370;42.764;23.432;2022-09-09T00:13:57;95762.22;;;16.04;100.00
41686;BME280;27370;42.764;23.432;2022-09-09T00:16:25;95770.09;;;16.14;100.00
41686;BME280;27370;42.764;23.432;2022-09-09T00:21:50;95758.16;;;15.70;100.00
41686;BME280;27370;42.764;23.432;2022-09-09T00:24:54;95758.94;;;15.71;100.00
41686;BME280;27370;42.764;23.432;2022-09-09T00:27:38;95754.53;;;15.60;100.00
41686;BME280;27370;42.764;23.432;2022-09-09T00:30:28;95756.31;;;15.80;100.00
41686;BME280;27370;42.764;23.432;2022-09-09T00:33:10;95756.31;;;15.80;100.00
41686;BME280;27370;42.764;23.432;2022-09-09T00:35:38;95754.00;;;15.78;100.00
41686;BME280;27370;42.764;23.432;2022-09-09T00:38:29;95747.38;;;15.67;100.00
41686;BME280;27370;42.764;23.432;2022-09-09T00:41:10;95746.69;;;15.75;100.00
41686;BME280;27370;42.764;23.432;2022-09-09T00:43:39;95749.34;;;15.91;100.00
41686;BME280;27370;42.764;23.432;2022-09-09T00:51:24;95748.91;;;15.26;100.00
41686;BME280;27370;42.764;23.432;2022-09-09T00:57:26;95738.44;;;15.37;100.00
41686;BME280;27370;42.764;23.432;2022-09-09T01:02:07;95732.75;;;15.31;100.00
41686;BME280;27370;42.764;23.432;2022-09-09T01:04:38;95734.28;;;15.32;100.00
41686;BME280;27370;42.764;23.432;2022-09-09T01:07:16;95731.66;;;15.29;100.00
41686;BME280;27370;42.764;23.432;2022-09-09T01:09:57;95739.06;;;15.28;100.00
41686;BME280;27370;42.764;23.432;2022-09-09T01:15:03;95731.34;;;15.27;100.00
41686;BME280;27370;42.764;23.432;2022-09-09T01:20:39;95738.28;;;15.15;100.00
41686;BME280;27370;42.764;23.432;2022-09-09T01:28:21;95724.81;;;14.95;100.00
41686;BME280;27370;42.764;23.432;2022-09-09T01:30:49;95721.50;;;14.88;100.00
41686;BME280;27370;42.764;23.432;2022-09-09T01:33:18;95721.25;;;15.11;100.00
41686;BME280;27370;42.764;23.432;2022-09-09T01:38:41;95738.34;;;14.99;100.00
41686;BME280;27370;42.764;23.432;2022-09-09T01:41:07;95740.75;;;14.97;100.00
41686;BME280;27370;42.764;23.432;2022-09-09T01:43:41;95749.25;;;14.99;100.00
41686;BME280;27370;42.764;23.432;2022-09-09T01:46:07;95742.78;;;14.93;100.00
41686;BME280;27370;42.764;23.432;2022-09-09T01:48:34;95758.53;;;15.01;100.00
41686;BME280;27370;42.764;23.432;2022-09-09T01:51:08;95749.06;;;15.06;100.00
41686;BME280;27370;42.764;23.432;2022-09-09T01:53:33;95759.78;;;14.84;100.00
41686;BME280;27370;42.764;23.432;2022-09-09T01:59:24;95752.72;;;14.70;100.00
41686;BME280;27370;42.764;23.432;2022-09-09T02:02:10;95752.47;;;14.65;100.00
41686;BME280;27370;42.764;23.432;2022-09-09T02:04:47;95749.84;;;14.61;100.00
41686;BME280;27370;42.764;23.432;2022-09-09T02:10:10;95759.31;;;14.73;100.00
41686;BME280;27370;42.764;23.432;2022-09-09T02:12:43;95763.28;;;14.68;100.00
41686;BME280;27370;42.764;23.432;2022-09-09T02:15:20;95751.19;;;14.69;100.00
41686;BME280;27370;42.764;23.432;2022-09-09T02:17:51;95744.41;;;14.61;100.00
41686;BME280;27370;42.764;23.432;2022-09-09T02:20:18;95749.09;;;14.90;100.00
41686;BME280;27370;42.764;23.432;2022-09-09T02:22:50;95752.66;;;14.74;100.00
41686;BME280;27370;42.764;23.432;2022-09-09T02:25:20;95735.91;;;14.59;100.00
41686;BME280;27370;42.764;23.432;2022-09-09T02:27:50;95730.91;;;14.70;100.00
41686;BME280;27370;42.764;23.432;2022-09-09T02:30:17;95729.66;;;14.75;100.00
41686;BME280;27370;42.764;23.432;2022-09-09T02:32:51;95739.63;;;14.65;100.00
41686;BME280;27370;42.764;23.432;2022-09-09T02:35:19;95743.75;;;14.57;100.00
41686;BME280;27370;42.764;23.432;2022-09-09T02:37:46;95745.47;;;14.51;100.00
41686;BME280;27370;42.764;23.432;2022-09-09T02:40:13;95741.13;;;14.83;100.00
41686;BME280;27370;42.764;23.432;2022-09-09T02:42:46;95736.53;;;14.80;100.00
41686;BME280;27370;42.764;23.432;2022-09-09T02:45:15;95737.94;;;14.55;100.00
41686;BME280;27370;42.764;23.432;2022-09-09T02:50:34;95748.84;;;14.55;100.00
41686;BME280;27370;42.764;23.432;2022-09-09T02:53:20;95751.47;;;14.59;100.00
41686;BME280;27370;42.764;23.432;2022-09-09T02:55:57;95752.59;;;14.61;100.00
41686;BME280;27370;42.764;23.432;2022-09-09T02:58:25;95755.16;;;14.52;100.00
41686;BME280;27370;42.764;23.432;2022-09-09T03:01:02;95748.34;;;14.44;100.00
41686;BME280;27370;42.764;23.432;2022-09-09T03:03:29;95750.91;;;14.51;100.00
41686;BME280;27370;42.764;23.432;2022-09-09T03:05:55;95750.22;;;14.47;100.00
41686;BME280;27370;42.764;23.432;2022-09-09T03:08:22;95753.84;;;14.24;100.00
41686;BME280;27370;42.764;23.432;2022-09-09T03:10:47;95748.16;;;14.19;100.00
41686;BME280;27370;42.764;23.432;2022-09-09T03:13:14;95755.47;;;14.22;100.00
41686;BME280;27370;42.764;23.432;2022-09-09T03:15:41;95762.28;;;14.14;100.00
41686;BME280;27370;42.764;23.432;2022-09-09T03:18:09;95766.72;;;14.07;100.00
41686;BME280;27370;42.764;23.432;2022-09-09T03:20:35;95762.78;;;13.92;100.00
41686;BME280;27370;42.764;23.432;2022-09-09T03:23:00;95771.56;;;14.32;100.00
41686;BME280;27370;42.764;23.432;2022-09-09T03:25:28;95766.47;;;14.18;100.00
41686;BME280;27370;42.764;23.432;2022-09-09T03:27:54;95756.75;;;13.85;100.00
41686;BME280;27370;42.764;23.432;2022-09-09T03:30:22;95760.03;;;13.76;100.00
41686;BME280;27370;42.764;23.432;2022-09-09T03:32:48;95752.75;;;13.89;100.00
41686;BME280;27370;42.764;23.432;2022-09-09T03:35:14;95756.16;;;14.09;100.00
41686;BME280;27370;42.764;23.432;2022-09-09T03:37:40;95755.91;;;14.04;100.00
41686;BME280;27370;42.764;23.432;2022-09-09T03:40:08;95753.69;;;13.99;100.00
41686;BME280;27370;42.764;23.432;2022-09-09T03:42:35;95761.56;;;13.77;100.00
41686;BME280;27370;42.764;23.432;2022-09-09T03:45:09;95754.56;;;13.60;100.00
41686;BME280;27370;42.764;23.432;2022-09-09T03:47:37;95760.38;;;13.62;100.00
41686;BME280;27370;42.764;23.432;2022-09-09T03:50:06;95763.16;;;13.58;100.00
41686;BME280;27370;42.764;23.432;2022-09-09T03:52:40;95755.25;;;13.64;100.00
41686;BME280;27370;42.764;23.432;2022-09-09T03:55:11;95753.88;;;13.56;100.00
41686;BME280;27370;42.764;23.432;2022-09-09T03:57:37;95750.03;;;13.53;100.00
41686;BME280;27370;42.764;23.432;2022-09-09T04:00:07;95753.38;;;13.61;100.00
41686;BME280;27370;42.764;23.432;2022-09-09T04:02:41;95754.06;;;13.65;100.00
41686;BME280;27370;42.764;23.432;2022-09-09T04:05:09;95762.41;;;13.74;100.00
41686;BME280;27370;42.764;23.432;2022-09-09T04:07:36;95765.81;;;13.78;100.00
41686;BME280;27370;42.764;23.432;2022-09-09T04:10:02;95761.56;;;13.77;100.00
41686;BME280;27370;42.764;23.432;2022-09-09T04:12:28;95767.63;;;13.85;100.00
41686;BME280;27370;42.764;23.432;2022-09-09T04:14:54;95773.75;;;13.89;100.00
41686;BME280;27370;42.764;23.432;2022-09-09T04:17:20;95769.94;;;13.86;100.00
41686;BME280;27370;42.764;23.432;2022-09-09T04:19:45;95771.72;;;13.93;100.00
41686;BME280;27370;42.764;23.432;2022-09-09T04:22:12;95766.53;;;13.82;100.00
41686;BME280;27370;42.764;23.432;2022-09-09T04:24:37;95766.09;;;13.84;100.00
41686;BME280;27370;42.764;23.432;2022-09-09T04:27:03;95758.00;;;13.80;100.00
41686;BME280;27370;42.764;23.432;2022-09-09T04:29:30;95744.91;;;13.75;100.00
41686;BME280;27370;42.764;23.432;2022-09-09T04:31:56;95759.59;;;13.77;100.00
41686;BME280;27370;42.764;23.432;2022-09-09T04:34:21;95759.50;;;13.65;100.00
41686;BME280;27370;42.764;23.432;2022-09-09T04:36:47;95752.69;;;13.57;100.00
41686;BME280;27370;42.764;23.432;2022-09-09T04:39:13;95748.84;;;14.06;100.00
41686;BME280;27370;42.764;23.432;2022-09-09T04:41:38;95739.31;;;13.98;100.00
41686;BME280;27370;42.764;23.432;2022-09-09T04:44:04;95759.47;;;14.17;100.00
41686;BME280;27370;42.764;23.432;2022-09-09T04:46:31;95775.47;;;14.15;100.00
41686;BME280;27370;42.764;23.432;2022-09-09T04:48:58;95785.78;;;14.24;100.00
41686;BME280;27370;42.764;23.432;2022-09-09T04:51:27;95782.38;;;14.36;100.00
41686;BME280;27370;42.764;23.432;2022-09-09T04:53:53;95768.88;;;14.49;100.00
41686;BME280;27370;42.764;23.432;2022-09-09T04:56:19;95772.50;;;14.58;100.00
41686;BME280;27370;42.764;23.432;2022-09-09T04:58:49;95765.69;;;14.66;100.00
41686;BME280;27370;42.764;23.432;2022-09-09T05:01:19;95759.09;;;14.80;100.00
41686;BME280;27370;42.764;23.432;2022-09-09T05:03:48;95763.50;;;14.90;100.00
41686;BME280;27370;42.764;23.432;2022-09-09T05:06:19;95761.50;;;15.07;100.00
41686;BME280;27370;42.764;23.432;2022-09-09T05:08:47;95763.25;;;14.85;100.00
41686;BME280;27370;42.764;23.432;2022-09-09T05:11:25;95748.53;;;14.82;100.00
41686;BME280;27370;42.764;23.432;2022-09-09T05:13:54;95741.09;;;15.12;100.00
41686;BME280;27370;42.764;23.432;2022-09-09T05:16:20;95747.91;;;15.32;100.00
41686;BME280;27370;42.764;23.432;2022-09-09T05:18:46;95755.06;;;15.55;100.00
41686;BME280;27370;42.764;23.432;2022-09-09T05:21:13;95754.59;;;15.86;100.00
41686;BME280;27370;42.764;23.432;2022-09-09T05:23:40;95755.22;;;16.15;100.00
41686;BME280;27370;42.764;23.432;2022-09-09T05:26:08;95748.66;;;16.13;100.00
41686;BME280;27370;42.764;23.432;2022-09-09T05:28:35;95748.56;;;16.64;100.00
41686;BME280;27370;42.764;23.432;2022-09-09T05:31:04;95753.19;;;16.67;100.00
41686;BME280;27370;42.764;23.432;2022-09-09T05:33:32;95751.25;;;16.89;100.00
41686;BME280;27370;42.764;23.432;2022-09-09T05:36:01;95746.69;;;17.08;100.00
41686;BME280;27370;42.764;23.432;2022-09-09T05:38:28;95744.53;;;17.25;100.00
41686;BME280;27370;42.764;23.432;2022-09-09T05:40:54;95743.09;;;17.42;100.00
41686;BME280;27370;42.764;23.432;2022-09-09T05:43:22;95741.63;;;17.72;100.00
41686;BME280;27370;42.764;23.432;2022-09-09T05:45:58;95752.34;;;17.88;100.00
41686;BME280;27370;42.764;23.432;2022-09-09T05:48:30;95756.16;;;17.91;100.00
41686;BME280;27370;42.764;23.432;2022-09-09T05:50:57;95756.03;;;17.94;100.00
41686;BME280;27370;42.764;23.432;2022-09-09T05:53:23;95751.63;;;18.06;100.00
41686;BME280;27370;42.764;23.432;2022-09-09T05:55:49;95753.53;;;18.18;100.00
41686;BME280;27370;42.764;23.432;2022-09-09T05:58:15;95747.28;;;18.27;100.00
41686;BME280;27370;42.764;23.432;2022-09-09T06:00:43;95740.03;;;18.51;100.00
41686;BME280;27370;42.764;23.432;2022-09-09T06:03:12;95746.59;;;18.54;100.00
41686;BME280;27370;42.764;23.432;2022-09-09T06:05:38;95750.59;;;18.71;100.00
41686;BME280;27370;42.764;23.432;2022-09-09T06:08:04;95759.47;;;18.84;100.00
41686;BME280;27370;42.764;23.432;2022-09-09T06:10:30;95770.56;;;18.99;100.00
41686;BME280;27370;42.764;23.432;2022-09-09T06:12:55;95755.22;;;19.02;99.61
41686;BME280;27370;42.764;23.432;2022-09-09T06:15:21;95762.66;;;19.10;99.51
41686;BME280;27370;42.764;23.432;2022-09-09T06:17:46;95759.16;;;19.28;98.38
41686;BME280;27370;42.764;23.432;2022-09-09T06:20:12;95756.53;;;19.52;97.04
41686;BME280;27370;42.764;23.432;2022-09-09T06:22:40;95764.75;;;19.61;95.06
41686;BME280;27370;42.764;23.432;2022-09-09T06:25:08;95767.22;;;19.59;98.32
41686;BME280;27370;42.764;23.432;2022-09-09T06:27:33;95768.88;;;19.66;98.05
41686;BME280;27370;42.764;23.432;2022-09-09T06:29:59;95763.53;;;19.71;95.92
41686;BME280;27370;42.764;23.432;2022-09-09T06:32:24;95772.91;;;19.88;96.40
41686;BME280;27370;42.764;23.432;2022-09-09T06:34:52;95766.19;;;19.99;96.60
41686;BME280;27370;42.764;23.432;2022-09-09T06:37:18;95767.41;;;19.88;93.86
41686;BME280;27370;42.764;23.432;2022-09-09T06:39:47;95765.41;;;19.98;92.69
41686;BME280;27370;42.764;23.432;2022-09-09T06:42:13;95752.69;;;20.10;93.47
41686;BME280;27370;42.764;23.432;2022-09-09T06:44:56;95751.38;;;20.29;93.13
41686;BME280;27370;42.764;23.432;2022-09-09T06:47:35;95750.72;;;20.43;93.76
41686;BME280;27370;42.764;23.432;2022-09-09T06:50:01;95748.09;;;20.49;92.17
41686;BME280;27370;42.764;23.432;2022-09-09T06:52:29;95744.16;;;20.65;89.53
41686;BME280;27370;42.764;23.432;2022-09-09T06:54:55;95753.59;;;20.73;88.48
41686;BME280;27370;42.764;23.432;2022-09-09T06:57:21;95746.72;;;20.92;83.00
41686;BME280;27370;42.764;23.432;2022-09-09T06:59:47;95754.31;;;20.97;80.47
41686;BME280;27370;42.764;23.432;2022-09-09T07:02:13;95766.03;;;21.07;77.59
41686;BME280;27370;42.764;23.432;2022-09-09T07:04:39;95773.69;;;21.03;80.95
41686;BME280;27370;42.764;23.432;2022-09-09T07:07:05;95773.69;;;21.03;81.98
41686;BME280;27370;42.764;23.432;2022-09-09T07:09:32;95764.72;;;21.17;81.06
41686;BME280;27370;42.764;23.432;2022-09-09T07:11:57;95763.91;;;21.02;82.79
41686;BME280;27370;42.764;23.432;2022-09-09T07:14:25;95761.03;;;21.20;85.02
41686;BME280;27370;42.764;23.432;2022-09-09T07:16:54;95764.59;;;21.35;81.80
41686;BME280;27370;42.764;23.432;2022-09-09T07:19:20;95758.81;;;21.63;80.27
41686;BME280;27370;42.764;23.432;2022-09-09T07:21:49;95755.03;;;21.75;79.84
41686;BME280;27370;42.764;23.432;2022-09-09T07:24:17;95753.59;;;21.80;76.78
41686;BME280;27370;42.764;23.432;2022-09-09T07:26:43;95752.34;;;21.81;80.65
41686;BME280;27370;42.764;23.432;2022-09-09T07:29:10;95757.47;;;22.02;77.63
41686;BME280;27370;42.764;23.432;2022-09-09T07:31:39;95755.44;;;22.18;77.25
41686;BME280;27370;42.764;23.432;2022-09-09T07:34:09;95756.28;;;22.59;70.20
41686;BME280;27370;42.764;23.432;2022-09-09T07:36:38;95743.09;;;22.48;73.50
41686;BME280;27370;42.764;23.432;2022-09-09T07:39:09;95745.38;;;22.50;74.40
41686;BME280;27370;42.764;23.432;2022-09-09T07:41:41;95737.06;;;22.65;71.22
41686;BME280;27370;42.764;23.432;2022-09-09T07:44:10;95741.16;;;22.54;75.31
41686;BME280;27370;42.764;23.432;2022-09-09T07:46:37;95734.84;;;22.69;74.61
41686;BME280;27370;42.764;23.432;2022-09-09T07:49:05;95741.63;;;22.88;74.05
41686;BME280;27370;42.764;23.432;2022-09-09T07:51:35;95746.59;;;22.84;74.01
41686;BME280;27370;42.764;23.432;2022-09-09T07:54:03;95751.56;;;23.00;77.08
41686;BME280;27370;42.764;23.432;2022-09-09T07:56:31;95748.22;;;23.16;73.43
41686;BME280;27370;42.764;23.432;2022-09-09T07:58:58;95757.50;;;23.39;71.54
41686;BME280;27370;42.764;23.432;2022-09-09T08:01:30;95751.59;;;23.52;69.07
41686;BME280;27370;42.764;23.432;2022-09-09T08:04:04;95750.50;;;23.64;72.44
41686;BME280;27370;42.764;23.432;2022-09-09T08:06:35;95746.19;;;23.89;69.18
41686;BME280;27370;42.764;23.432;2022-09-09T08:09:01;95745.88;;;24.19;65.85
41686;BME280;27370;42.764;23.432;2022-09-09T08:11:28;95751.16;;;24.17;63.58
41686;BME280;27370;42.764;23.432;2022-09-09T08:13:54;95740.63;;;24.21;64.18
41686;BME280;27370;42.764;23.432;2022-09-09T08:16:23;95736.47;;;24.36;65.31
41686;BME280;27370;42.764;23.432;2022-09-09T08:18:51;95742.78;;;24.37;63.45
41686;BME280;27370;42.764;23.432;2022-09-09T08:21:19;95736.56;;;24.48;59.29
41686;BME280;27370;42.764;23.432;2022-09-09T08:23:47;95733.75;;;24.42;59.35
41686;BME280;27370;42.764;23.432;2022-09-09T08:26:17;95730.91;;;24.31;62.58
41686;BME280;27370;42.764;23.432;2022-09-09T08:28:51;95738.00;;;24.37;60.53
41686;BME280;27370;42.764;23.432;2022-09-09T08:31:19;95734.00;;;24.44;63.65
41686;BME280;27370;42.764;23.432;2022-09-09T08:33:45;95734.56;;;24.54;61.91
41686;BME280;27370;42.764;23.432;2022-09-09T08:36:13;95735.91;;;24.27;60.32
41686;BME280;27370;42.764;23.432;2022-09-09T08:38:46;95722.75;;;24.53;64.63
41686;BME280;27370;42.764;23.432;2022-09-09T08:44:37;95723.53;;;25.13;61.63
41686;BME280;27370;42.764;23.432;2022-09-09T08:57:55;95710.44;;;25.19;57.29
41686;BME280;27370;42.764;23.432;2022-09-09T09:00:29;95710.13;;;25.12;56.51
41686;BME280;27370;42.764;23.432;2022-09-09T09:03:12;95699.38;;;25.36;58.53
41686;BME280;27370;42.764;23.432;2022-09-09T09:05:56;95704.44;;;25.60;56.06
41686;BME280;27370;42.764;23.432;2022-09-09T09:08:33;95702.97;;;25.70;57.36
41686;BME280;27370;42.764;23.432;2022-09-09T09:11:03;95702.44;;;26.00;51.72
41686;BME280;27370;42.764;23.432;2022-09-09T09:16:26;95700.44;;;26.06;60.19
41686;BME280;27370;42.764;23.432;2022-09-09T09:18:54;95702.97;;;26.04;57.53
41686;BME280;27370;42.764;23.432;2022-09-09T09:23:59;95715.31;;;25.97;55.87
41686;BME280;27370;42.764;23.432;2022-09-09T09:26:34;95696.13;;;25.93;55.22
41686;BME280;27370;42.764;23.432;2022-09-09T09:29:08;95695.63;;;25.95;54.39
41686;BME280;27370;42.764;23.432;2022-09-09T09:31:35;95697.41;;;26.04;57.09
41686;BME280;27370;42.764;23.432;2022-09-09T09:34:00;95692.53;;;26.43;53.21
41686;BME280;27370;42.764;23.432;2022-09-09T09:36:53;95694.53;;;26.54;55.36
41686;BME280;27370;42.764;23.432;2022-09-09T09:39:30;95694.25;;;26.63;50.99
41686;BME280;27370;42.764;23.432;2022-09-09T09:42:14;95696.56;;;26.48;53.69
41686;BME280;27370;42.764;23.432;2022-09-09T09:44:43;95691.97;;;26.67;53.81
41686;BME280;27370;42.764;23.432;2022-09-09T09:47:17;95688.69;;;26.63;53.95
41686;BME280;27370;42.764;23.432;2022-09-09T09:52:22;95686.38;;;26.78;55.62
41686;BME280;27370;42.764;23.432;2022-09-09T09:54:49;95679.25;;;26.89;51.56
41686;BME280;27370;42.764;23.432;2022-09-09T09:57:16;95666.56;;;26.99;51.41
41686;BME280;27370;42.764;23.432;2022-09-09T09:59:45;95667.38;;;26.88;54.04
41686;BME280;27370;42.764;23.432;2022-09-09T10:02:23;95679.09;;;26.64;50.26
41686;BME280;27370;42.764;23.432;2022-09-09T10:05:28;95664.03;;;26.48;54.19
41686;BME280;27370;42.764;23.432;2022-09-09T10:08:18;95671.09;;;26.38;52.48
41686;BME280;27370;42.764;23.432;2022-09-09T10:17:02;95674.13;;;26.29;53.75
41686;BME280;27370;42.764;23.432;2022-09-09T10:38:08;95693.63;;;25.79;60.20
41686;BME280;27370;42.764;23.432;2022-09-09T10:46:09;95691.84;;;25.64;58.70
41686;BME280;27370;42.764;23.432;2022-09-09T10:57:33;95691.81;;;25.53;63.98
41686;BME280;27370;42.764;23.432;2022-09-09T11:00:14;95703.16;;;25.50;64.02
41686;BME280;27370;42.764;23.432;2022-09-09T11:02:41;95696.34;;;25.40;62.58
41686;BME280;27370;42.764;23.432;2022-09-09T11:05:16;95690.28;;;25.24;63.94
41686;BME280;27370;42.764;23.432;2022-09-09T11:08:05;95689.81;;;25.54;59.61
41686;BME280;27370;42.764;23.432;2022-09-09T11:10:40;95695.34;;;25.54;64.33
41686;BME280;27370;42.764;23.432;2022-09-09T11:13:23;95697.63;;;25.61;58.69
41686;BME280;27370;42.764;23.432;2022-09-09T11:15:59;95697.13;;;25.51;62.33
41686;BME280;27370;42.764;23.432;2022-09-09T11:18:29;95686.53;;;25.39;61.92
41686;BME280;27370;42.764;23.432;2022-09-09T11:21:00;95689.06;;;25.59;59.66
41686;BME280;27370;42.764;23.432;2022-09-09T11:23:34;95686.78;;;25.46;65.53
41686;BME280;27370;42.764;23.432;2022-09-09T11:26:05;95679.72;;;25.45;64.33
41686;BME280;27370;42.764;23.432;2022-09-09T11:31:45;95675.22;;;25.59;64.12
41686;BME280;27370;42.764;23.432;2022-09-09T11:40:09;95658.56;;;25.59;59.95
41686;BME280;27370;42.764;23.432;2022-09-09T11:42:39;95658.59;;;25.81;60.18
41686;BME280;27370;42.764;23.432;2022-09-09T11:45:25;95646.19;;;25.93;57.17
41686;BME280;27370;42.764;23.432;2022-09-09T11:47:58;95630.53;;;26.07;59.00
41686;BME280;27370;42.764;23.432;2022-09-09T11:50:35;95626.31;;;25.84;60.54
41686;BME280;27370;42.764;23.432;2022-09-09T11:55:39;95625.78;;;25.74;63.38
41686;BME280;27370;42.764;23.432;2022-09-09T12:00:44;95606.88;;;25.50;62.48
41686;BME280;27370;42.764;23.432;2022-09-09T12:05:59;95600.34;;;25.70;61.05
41686;BME280;27370;42.764;23.432;2022-09-09T12:08:27;95607.56;;;26.12;61.70
41686;BME280;27370;42.764;23.432;2022-09-09T12:10:56;95606.19;;;26.47;59.35
41686;BME280;27370;42.764;23.432;2022-09-09T12:13:25;95607.59;;;26.76;59.45
41686;BME280;27370;42.764;23.432;2022-09-09T12:15:58;95604.66;;;27.04;60.21
41686;BME280;27370;42.764;23.432;2022-09-09T12:23:48;95603.22;;;26.86;57.77
41686;BME280;27370;42.764;23.432;2022-09-09T12:31:54;95593.31;;;26.96;59.26
41686;BME280;27370;42.764;23.432;2022-09-09T12:36:58;95590.78;;;26.51;62.54
41686;BME280;27370;42.764;23.432;2022-09-09T12:39:35;95587.59;;;26.83;62.82
41686;BME280;27370;42.764;23.432;2022-09-09T12:42:03;95580.94;;;26.92;61.03
41686;BME280;27370;42.764;23.432;2022-09-09T12:44:30;95578.56;;;27.12;61.69
41686;BME280;27370;42.764;23.432;2022-09-09T12:46:59;95570.13;;;26.88;61.47
41686;BME280;27370;42.764;23.432;2022-09-09T12:49:37;95564.78;;;26.90;59.21
41686;BME280;27370;42.764;23.432;2022-09-09T12:52:07;95567.13;;;26.80;62.92
41686;BME280;27370;42.764;23.432;2022-09-09T12:54:36;95564.94;;;27.09;62.77
41686;BME280;27370;42.764;23.432;2022-09-09T12:57:03;95565.25;;;27.35;58.17
41686;BME280;27370;42.764;23.432;2022-09-09T12:59:38;95555.34;;;27.10;60.45
41686;BME280;27370;42.764;23.432;2022-09-09T13:02:20;95559.00;;;26.41;62.18
41686;BME280;27370;42.764;23.432;2022-09-09T13:04:46;95560.56;;;26.37;60.95
41686;BME280;27370;42.764;23.432;2022-09-09T13:07:13;95548.53;;;26.64;61.81
41686;BME280;27370;42.764;23.432;2022-09-09T13:09:41;95556.41;;;26.60;61.56
41686;BME280;27370;42.764;23.432;2022-09-09T13:12:21;95552.59;;;26.63;61.30
41686;BME280;27370;42.764;23.432;2022-09-09T13:14:50;95557.59;;;26.70;64.51
41686;BME280;27370;42.764;23.432;2022-09-09T13:17:24;95552.59;;;26.63;66.51
41686;BME280;27370;42.764;23.432;2022-09-09T13:19:52;95549.81;;;26.63;61.56
41686;BME280;27370;42.764;23.432;2022-09-09T13:25:02;95542.41;;;26.30;64.99
41686;BME280;27370;42.764;23.432;2022-09-09T13:27:38;95539.41;;;26.69;61.98
41686;BME280;27370;42.764;23.432;2022-09-09T13:30:33;95526.38;;;26.94;64.14
41686;BME280;27370;42.764;23.432;2022-09-09T13:38:24;95524.00;;;27.09;65.64
41686;BME280;27370;42.764;23.432;2022-09-09T13:43:33;95527.94;;;27.25;63.47
41686;BME280;27370;42.764;23.432;2022-09-09T13:46:02;95525.22;;;27.14;65.05
41686;BME280;27370;42.764;23.432;2022-09-09T13:48:28;95529.72;;;27.23;59.28
41686;BME280;27370;42.764;23.432;2022-09-09T13:51:00;95527.00;;;27.11;65.52
41686;BME280;27370;42.764;23.432;2022-09-09T13:53:26;95519.03;;;26.97;61.09
41686;BME280;27370;42.764;23.432;2022-09-09T13:55:53;95517.00;;;26.97;67.57
41686;BME280;27370;42.764;23.432;2022-09-09T13:58:18;95517.53;;;26.96;63.73
41686;BME280;27370;42.764;23.432;2022-09-09T14:00:45;95512.97;;;26.93;63.37
41686;BME280;27370;42.764;23.432;2022-09-09T14:03:10;95513.88;;;27.12;66.45
41686;BME280;27370;42.764;23.432;2022-09-09T14:05:36;95517.16;;;27.10;62.36
41686;BME280;27370;42.764;23.432;2022-09-09T14:08:04;95508.31;;;27.12;65.23
41686;BME280;27370;42.764;23.432;2022-09-09T14:10:31;95506.44;;;27.26;66.01
41686;BME280;27370;42.764;23.432;2022-09-09T14:12:56;95503.13;;;27.27;64.82
41686;BME280;27370;42.764;23.432;2022-09-09T14:15:22;95500.94;;;27.20;61.47
41686;BME280;27370;42.764;23.432;2022-09-09T14:17:47;95496.06;;;27.26;63.18
41686;BME280;27370;42.764;23.432;2022-09-09T14:20:14;95496.31;;;27.28;62.42
41686;BME280;27370;42.764;23.432;2022-09-09T14:22:41;95498.47;;;26.75;62.24
41686;BME280;27370;42.764;23.432;2022-09-09T14:25:07;95498.84;;;26.91;63.87
41686;BME280;27370;42.764;23.432;2022-09-09T14:27:33;95492.50;;;27.01;62.16
41686;BME280;27370;42.764;23.432;2022-09-09T14:29:59;95504.13;;;27.00;61.18
41686;BME280;27370;42.764;23.432;2022-09-09T14:32:26;95492.03;;;26.92;63.38
41686;BME280;27370;42.764;23.432;2022-09-09T14:34:52;95491.03;;;26.89;65.24
41686;BME280;27370;42.764;23.432;2022-09-09T14:37:19;95491.31;;;26.85;66.49
41686;BME280;27370;42.764;23.432;2022-09-09T14:39:45;95487.50;;;26.89;66.43
41686;BME280;27370;42.764;23.432;2022-09-09T14:42:12;95488.41;;;26.72;65.57
41686;BME280;27370;42.764;23.432;2022-09-09T14:44:38;95476.91;;;26.87;65.63
41686;BME280;27370;42.764;23.432;2022-09-09T14:47:07;95480.16;;;26.91;64.30
41686;BME280;27370;42.764;23.432;2022-09-09T14:49:34;95489.75;;;26.90;63.50
41686;BME280;27370;42.764;23.432;2022-09-09T14:52:00;95486.97;;;26.96;62.16
41686;BME280;27370;42.764;23.432;2022-09-09T14:54:26;95487.03;;;26.84;61.92
41686;BME280;27370;42.764;23.432;2022-09-09T14:56:51;95484.25;;;26.84;60.71
41686;BME280;27370;42.764;23.432;2022-09-09T14:59:17;95489.91;;;26.73;61.58
41686;BME280;27370;42.764;23.432;2022-09-09T15:01:42;95485.22;;;26.57;62.57
41686;BME280;27370;42.764;23.432;2022-09-09T15:04:11;95486.63;;;26.69;61.28
41686;BME280;27370;42.764;23.432;2022-09-09T15:06:38;95491.94;;;26.67;60.71
41686;BME280;27370;42.764;23.432;2022-09-09T15:09:04;95483.66;;;26.62;61.17
41686;BME280;27370;42.764;23.432;2022-09-09T15:11:34;95485.28;;;26.46;62.19
41686;BME280;27370;42.764;23.432;2022-09-09T15:14:03;95495.44;;;26.38;62.63
41686;BME280;27370;42.764;23.432;2022-09-09T15:16:29;95496.69;;;26.37;63.96
41686;BME280;27370;42.764;23.432;2022-09-09T15:18:57;95503.53;;;26.30;63.71
41686;BME280;27370;42.764;23.432;2022-09-09T15:21:25;95497.47;;;26.32;64.49
41686;BME280;27370;42.764;23.432;2022-09-09T15:23:51;95503.06;;;26.20;65.36